Time;durP1;ratioP1;P1;durP2;ratioP2;P2;SDS_P1;SDS_P2;PMS_P1;PMS_P2;Temp;Humidity;BMP_temperature;BMP_pressure;BME280_temperature;BME280_humidity;BME280_pressure;Samples;Min_cycle;Max_cycle;Signal;HPM_P1;HPM_P2
2021/06/19 00:02:02;;;;;;;16.27;14.40;;;;;;;-144.99;69.07;52001.75;5099041;28;20221;-80
2021/06/19 00:04:30;;;;;;;17.17;15.60;;;;;;;-144.99;69.32;52069.00;5094311;28;20206;-82
2021/06/19 00:06:57;;;;;;;17.17;15.57;;;;;;;-144.99;69.30;52085.31;5094965;28;20555;-83
2021/06/19 00:09:24;;;;;;;19.23;17.37;;;;;;;-144.99;69.45;52036.38;5096499;28;20232;-82
2021/06/19 00:11:51;;;;;;;17.47;15.53;;;;;;;-144.99;69.49;52060.84;5095395;28;20296;-83
2021/06/19 00:14:18;;;;;;;17.63;15.93;;;;;;;-144.99;69.92;52052.69;5095930;28;20668;-82
2021/06/19 00:16:46;;;;;;;18.27;16.37;;;;;;;-144.99;69.96;52056.78;5089062;28;20214;-82
2021/06/19 00:19:13;;;;;;;18.43;16.83;;;;;;;-144.99;69.89;52026.19;5085919;28;20250;-82
2021/06/19 00:21:41;;;;;;;19.40;17.27;;;;;;;-144.99;70.12;52044.53;5094031;28;20247;-82
2021/06/19 00:24:09;;;;;;;19.17;17.47;;;;;;;-144.99;70.27;52064.91;5081362;28;20396;-83
2021/06/19 00:26:36;;;;;;;20.87;16.47;;;;;;;-144.99;70.27;52048.63;5093453;28;20227;-83
2021/06/19 00:29:03;;;;;;;17.53;15.93;;;;;;;-144.99;70.22;52036.38;5093877;28;20216;-80
2021/06/19 00:31:30;;;;;;;17.37;15.70;;;;;;;-144.99;70.20;52048.63;5100756;28;20218;-79
2021/06/19 00:33:58;;;;;;;16.03;14.70;;;;;;;-144.99;70.54;52077.16;5094885;28;20211;-79
2021/06/19 00:36:25;;;;;;;18.50;16.70;;;;;;;-144.99;70.69;52046.56;5107343;28;20214;-79
2021/06/19 00:38:52;;;;;;;17.20;15.63;;;;;;;-144.99;70.40;52048.63;5106468;28;20234;-79
2021/06/19 00:41:18;;;;;;;20.43;18.50;;;;;;;-144.99;70.57;52064.91;5108922;28;20219;-79
2021/06/19 00:43:46;;;;;;;19.37;17.37;;;;;;;-144.99;70.82;52052.69;5109419;28;20236;-81
2021/06/19 00:46:12;;;;;;;17.97;15.77;;;;;;;-144.99;70.82;52079.19;5106859;28;20228;-81
2021/06/19 00:48:39;;;;;;;18.43;16.73;;;;;;;-144.99;70.96;52073.06;5100109;28;20295;-82
2021/06/19 00:51:07;;;;;;;19.63;17.83;;;;;;;-144.99;71.26;52060.84;5099416;28;20236;-81
2021/06/19 00:53:34;;;;;;;17.80;16.00;;;;;;;-144.99;71.61;52054.72;5098420;28;20291;-81
2021/06/19 00:56:01;;;;;;;21.17;18.93;;;;;;;-144.99;71.63;52069.00;5097942;28;20221;-81
2021/06/19 00:58:28;;;;;;;19.10;17.43;;;;;;;-144.99;71.56;52089.38;5097384;28;20295;-81
2021/06/19 01:00:55;;;;;;;17.77;16.17;;;;;;;-144.99;71.83;52069.00;5096078;28;20295;-81
2021/06/19 01:03:22;;;;;;;21.70;19.33;;;;;;;-144.99;72.21;52087.34;5097039;28;20212;-81
2021/06/19 01:05:49;;;;;;;20.67;18.50;;;;;;;-144.99;72.02;52075.09;5095347;28;20244;-81
2021/06/19 01:08:17;;;;;;;20.97;18.83;;;;;;;-144.99;72.06;52077.16;5098801;28;20238;-81
2021/06/19 01:10:44;;;;;;;20.53;18.53;;;;;;;-144.99;72.10;52052.69;5096639;28;20790;-82
2021/06/19 01:13:11;;;;;;;20.90;19.03;;;;;;;-144.99;72.34;52044.53;5085116;28;20222;-81
2021/06/19 01:15:37;;;;;;;20.43;18.23;;;;;;;-144.99;72.44;52069.00;5098241;28;20211;-80
2021/06/19 01:18:05;;;;;;;21.37;19.17;;;;;;;-144.99;72.58;52105.69;5097302;28;20207;-82
2021/06/19 01:20:36;;;;;;;19.93;17.90;;;;;;;-144.99;72.49;52052.69;5097712;28;20244;-81
2021/06/19 01:23:03;;;;;;;18.60;16.83;;;;;;;-144.99;72.68;52077.16;5097957;28;20209;-81
2021/06/19 01:25:33;;;;;;;22.73;19.23;;;;;;;-144.99;72.84;52140.31;5099203;28;20212;-82
2021/06/19 01:28:01;;;;;;;21.57;19.67;;;;;;;-144.99;73.18;52064.91;5098283;28;20221;-80
2021/06/19 01:30:30;;;;;;;21.37;19.27;;;;;;;-144.99;72.95;52097.53;5098706;28;20740;-80
2021/06/19 01:32:57;;;;;;;22.13;20.13;;;;;;;-144.99;73.06;52066.97;5097936;28;20239;-81
2021/06/19 01:35:24;;;;;;;20.03;18.23;;;;;;;-144.99;73.08;52085.31;5096911;28;20767;-80
2021/06/19 01:37:53;;;;;;;22.97;20.07;;;;;;;-144.99;73.07;52056.78;5091023;28;20208;-81
2021/06/19 01:40:22;;;;;;;23.20;20.97;;;;;;;-144.99;73.06;52081.22;5092345;28;20277;-79
2021/06/19 01:42:52;;;;;;;22.13;19.17;;;;;;;-144.99;73.08;52081.22;5095010;28;20722;-80
2021/06/19 01:45:21;;;;;;;24.67;22.50;;;;;;;-144.99;73.58;52097.53;5094127;28;20664;-80
2021/06/19 01:47:48;;;;;;;24.03;21.93;;;;;;;-144.99;73.28;52101.59;5092846;28;20684;-82
2021/06/19 01:50:18;;;;;;;21.03;19.13;;;;;;;-144.99;73.70;52073.06;5095893;28;20775;-81
2021/06/19 01:52:45;;;;;;;19.33;17.27;;;;;;;-144.99;73.73;52101.59;5096620;28;20267;-81
2021/06/19 01:55:13;;;;;;;22.70;20.23;;;;;;;-144.99;73.45;52113.84;5098056;28;20613;-83
2021/06/19 01:57:40;;;;;;;23.50;21.07;;;;;;;-144.99;73.66;52075.09;5098698;28;20289;-81
2021/06/19 02:00:11;;;;;;;22.40;20.40;;;;;;;-144.99;73.76;52087.34;5098145;28;20262;-81
2021/06/19 02:02:39;;;;;;;21.37;19.47;;;;;;;-144.99;73.79;52113.84;5087075;28;20218;-81
2021/06/19 02:05:07;;;;;;;22.20;20.23;;;;;;;-144.99;74.16;52081.22;5093845;28;20229;-81
2021/06/19 02:07:34;;;;;;;21.33;19.53;;;;;;;-144.99;74.44;52097.53;5092724;28;20687;-79
2021/06/19 02:10:01;;;;;;;21.80;19.77;;;;;;;-144.99;74.87;52101.59;5092892;28;20238;-80
2021/06/19 02:12:28;;;;;;;22.20;20.40;;;;;;;-144.99;74.83;52097.53;5094831;28;20300;-80
2021/06/19 02:14:55;;;;;;;24.13;18.97;;;;;;;-144.99;74.88;52121.97;5094207;28;20240;-82
2021/06/19 02:17:23;;;;;;;24.87;22.53;;;;;;;-144.99;75.19;52085.31;5094980;28;20304;-79
2021/06/19 02:19:49;;;;;;;23.90;21.37;;;;;;;-144.99;75.42;52099.56;5104113;28;20233;-81
2021/06/19 02:22:16;;;;;;;19.70;17.73;;;;;;;-144.99;75.35;52111.78;5112144;28;20189;-81
2021/06/19 02:24:43;;;;;;;22.03;20.07;;;;;;;-144.99;75.61;52121.97;5109153;28;20221;-81
2021/06/19 02:27:11;;;;;;;25.00;22.80;;;;;;;-144.99;75.63;52093.44;5108438;28;20231;-81
2021/06/19 02:29:39;;;;;;;24.07;21.70;;;;;;;-144.99;75.63;52089.38;5107512;28;20267;-80
2021/06/19 02:32:07;;;;;;;22.43;20.43;;;;;;;-144.99;75.83;52081.22;5101173;28;20206;-80
2021/06/19 02:34:36;;;;;;;21.47;19.67;;;;;;;-144.99;75.74;52097.53;5099583;28;20271;-79
2021/06/19 02:37:04;;;;;;;25.23;22.83;;;;;;;-144.99;76.02;52138.28;5105432;28;20208;-80
2021/06/19 02:39:30;;;;;;;20.93;18.80;;;;;;;-144.99;75.98;52105.69;5107205;28;20236;-79
2021/06/19 02:41:57;;;;;;;26.20;23.80;;;;;;;-144.99;76.45;52109.75;5105521;28;20428;-82
2021/06/19 02:44:24;;;;;;;23.77;21.40;;;;;;;-144.99;76.68;52117.91;5100733;28;20208;-77
2021/06/19 02:46:51;;;;;;;21.80;19.77;;;;;;;-144.99;77.01;52073.06;5092453;28;20651;-77
2021/06/19 02:49:17;;;;;;;26.07;23.87;;;;;;;-144.99;77.43;52097.53;5091371;28;20252;-76
2021/06/19 02:51:45;;;;;;;24.30;22.13;;;;;;;-144.99;77.76;52124.03;5091221;28;20302;-77
2021/06/19 02:54:12;;;;;;;23.73;21.30;;;;;;;-144.99;78.11;52109.75;5091712;28;20219;-76
2021/06/19 02:56:39;;;;;;;22.27;20.27;;;;;;;-144.99;78.18;52138.28;5091885;28;20274;-77
2021/06/19 02:59:05;;;;;;;24.03;22.03;;;;;;;-144.99;78.15;52113.84;5090801;28;20726;-77
2021/06/19 03:01:32;;;;;;;24.53;22.43;;;;;;;-144.99;78.28;52121.97;5091152;28;20291;-76
2021/06/19 03:04:00;;;;;;;23.83;21.43;;;;;;;-144.99;78.47;52109.75;5091119;28;20231;-77
2021/06/19 03:06:27;;;;;;;23.83;21.60;;;;;;;-144.99;78.48;52101.59;5091507;28;20219;-79
2021/06/19 03:08:55;;;;;;;25.70;23.30;;;;;;;-144.99;78.61;52077.16;5091196;28;20204;-76
2021/06/19 03:11:22;;;;;;;26.27;23.77;;;;;;;-144.99;78.81;52138.28;5087163;28;20728;-76
2021/06/19 03:13:48;;;;;;;25.97;23.43;;;;;;;-144.99;78.96;52111.78;5080759;28;20212;-76
2021/06/19 03:16:15;;;;;;;27.63;24.87;;;;;;;-144.99;79.32;52105.69;5086650;28;20635;-76
2021/06/19 03:18:42;;;;;;;23.70;21.37;;;;;;;-144.99;79.52;52097.53;5090926;28;20298;-74
2021/06/19 03:21:08;;;;;;;25.40;22.93;;;;;;;-144.99;79.59;52099.56;5090347;28;20315;-75
2021/06/19 03:23:35;;;;;;;27.10;24.80;;;;;;;-144.99;79.72;52077.16;5091078;28;20280;-73
2021/06/19 03:26:03;;;;;;;28.73;25.87;;;;;;;-144.99;79.93;52077.16;5091058;28;20239;-74
2021/06/19 03:28:30;;;;;;;27.03;24.73;;;;;;;-144.99;80.32;52093.44;5090881;28;20523;-74
2021/06/19 03:30:56;;;;;;;22.40;20.40;;;;;;;-144.99;80.31;52099.56;5089561;28;20618;-74
2021/06/19 03:33:23;;;;;;;28.50;25.80;;;;;;;-144.99;80.47;52093.44;5090931;28;20250;-75
2021/06/19 03:35:50;;;;;;;26.37;23.90;;;;;;;-144.99;80.65;52091.41;5090159;28;20741;-74
2021/06/19 03:38:16;;;;;;;24.77;22.20;;;;;;;-144.99;80.90;52109.75;5086280;28;20208;-75
2021/06/19 03:40:43;;;;;;;28.57;25.57;;;;;;;-144.99;81.23;52069.00;5090637;28;20353;-74
2021/06/19 03:43:11;;;;;;;30.47;24.77;;;;;;;-144.99;81.12;52069.00;5091299;28;20242;-75
2021/06/19 03:45:38;;;;;;;26.03;23.63;;;;;;;-144.99;80.79;52105.69;5090071;28;20609;-73
2021/06/19 03:48:06;;;;;;;27.20;24.57;;;;;;;-144.99;80.67;52097.53;5090688;28;20285;-75
2021/06/19 03:50:33;;;;;;;25.30;22.80;;;;;;;-144.99;80.70;52105.69;5089114;28;20240;-75
2021/06/19 03:53:00;;;;;;;27.57;25.07;;;;;;;-144.99;80.70;52113.84;5090149;28;20254;-75
2021/06/19 03:55:29;;;;;;;23.93;21.70;;;;;;;-144.99;80.91;52099.56;5089323;28;20232;-74
2021/06/19 03:57:58;;;;;;;24.73;22.63;;;;;;;-144.99;80.82;52113.84;5090386;28;20221;-75
2021/06/19 04:00:26;;;;;;;28.10;25.70;;;;;;;-144.99;81.15;52097.53;5085839;28;20319;-75
2021/06/19 04:02:53;;;;;;;25.73;23.43;;;;;;;-144.99;81.43;52134.22;5074403;28;20208;-74
2021/06/19 04:05:21;;;;;;;25.87;23.43;;;;;;;-144.99;81.74;52126.06;5087006;28;20212;-74
2021/06/19 04:07:48;;;;;;;27.70;24.53;;;;;;;-144.99;81.51;52121.97;5089581;28;20207;-73
2021/06/19 04:10:16;;;;;;;25.63;23.03;;;;;;;-144.99;81.70;52093.44;5089148;28;20677;-74
2021/06/19 04:12:43;;;;;;;27.53;24.70;;;;;;;-144.99;81.74;52111.78;5089866;28;20301;-73
2021/06/19 04:15:11;;;;;;;24.60;22.40;;;;;;;-144.99;82.05;52121.97;5089872;28;20651;-73
2021/06/19 04:17:40;;;;;;;24.77;22.23;;;;;;;-144.99;82.39;52105.69;5088957;28;20294;-74
2021/06/19 04:20:09;;;;;;;24.67;22.57;;;;;;;-144.99;82.48;52142.38;5089201;28;20325;-73
2021/06/19 04:22:35;;;;;;;26.57;24.07;;;;;;;-144.99;82.83;52093.44;5089260;28;20215;-74
2021/06/19 04:25:02;;;;;;;24.20;22.00;;;;;;;-144.99;83.08;52138.28;5089499;28;20260;-74
2021/06/19 04:27:29;;;;;;;27.77;25.30;;;;;;;-144.99;83.10;52089.38;5089879;28;20242;-75
2021/06/19 04:29:56;;;;;;;27.23;24.50;;;;;;;-144.99;82.94;52130.13;5089806;28;20318;-77
2021/06/19 04:32:24;;;;;;;25.23;22.70;;;;;;;-144.99;83.08;52126.06;5078286;28;20269;-76
2021/06/19 04:34:52;;;;;;;23.83;21.70;;;;;;;-144.99;83.01;52103.66;5083996;28;20669;-77
2021/06/19 04:37:18;;;;;;;23.83;21.43;;;;;;;-144.99;82.56;52109.75;5088027;28;20681;-75
2021/06/19 04:39:52;;;;;;;25.07;22.70;;;;;;;-144.99;82.08;52093.44;5087912;28;20288;-75
2021/06/19 04:42:19;;;;;;;23.97;21.77;;;;;;;-144.99;81.85;52105.69;5089603;28;20215;-75
2021/06/19 04:47:36;;;;;;;24.67;22.40;;;;;;;-144.99;81.49;52064.91;5067439;28;20211;-76
2021/06/19 04:50:05;;;;;;;22.30;20.17;;;;;;;-144.99;81.35;52138.28;5090107;28;20269;-79
2021/06/19 04:52:33;;;;;;;26.27;23.93;;;;;;;-144.99;81.43;52109.75;5090645;28;20233;-79
2021/06/19 04:55:01;;;;;;;23.63;21.40;;;;;;;-144.99;80.89;52093.44;5091729;28;20263;-79
2021/06/19 04:57:28;;;;;;;23.80;21.37;;;;;;;-144.99;80.90;52128.09;5090975;28;20274;-78
2021/06/19 04:59:56;;;;;;;24.33;20.93;;;;;;;-144.99;80.60;52117.91;5091094;28;20289;-77
2021/06/19 05:02:23;;;;;;;25.53;23.13;;;;;;;-144.99;80.14;52085.31;5091265;28;20637;-79
2021/06/19 05:04:50;;;;;;;21.03;18.87;;;;;;;-144.99;79.81;52097.53;5091719;28;20592;-77
2021/06/19 05:07:18;;;;;;;21.60;19.27;;;;;;;-144.99;79.76;52081.22;5090612;28;20220;-79
2021/06/19 05:09:45;;;;;;;21.87;19.83;;;;;;;-144.99;79.85;52071.03;5091359;28;20288;-77
2021/06/19 05:12:12;;;;;;;24.33;20.10;;;;;;;-144.99;79.75;52077.16;5087150;28;20218;-77
2021/06/19 05:14:39;;;;;;;23.57;21.17;;;;;;;-144.99;79.31;52093.44;5079054;28;20238;-79
2021/06/19 05:17:06;;;;;;;23.13;20.70;;;;;;;-144.99;80.08;52085.31;5093268;28;20237;-79
2021/06/19 05:19:33;;;;;;;21.00;18.97;;;;;;;-144.99;79.45;52089.38;5093959;28;20422;-79
2021/06/19 05:22:00;;;;;;;22.83;20.83;;;;;;;-144.99;79.39;52083.25;5093648;28;20232;-79
2021/06/19 05:24:28;;;;;;;19.10;17.17;;;;;;;-144.99;79.07;52124.03;5093329;28;20212;-80
2021/06/19 05:26:55;;;;;;;20.60;18.47;;;;;;;-144.99;79.03;52097.53;5093165;28;20218;-79
2021/06/19 05:29:22;;;;;;;23.63;19.57;;;;;;;-144.99;79.35;52113.84;5091920;28;20227;-80
2021/06/19 05:31:48;;;;;;;22.87;20.57;;;;;;;-144.99;79.49;52126.06;5092397;28;20273;-78
2021/06/19 05:34:15;;;;;;;25.73;17.77;;;;;;;-144.99;79.19;52107.72;5089964;28;20328;-78
2021/06/19 05:36:42;;;;;;;22.13;19.63;;;;;;;-144.99;79.63;52097.53;5089640;28;20685;-76
2021/06/19 05:39:09;;;;;;;24.70;21.17;;;;;;;-144.99;79.72;52146.44;5087144;28;20354;-79
2021/06/19 05:41:38;;;;;;;20.63;18.37;;;;;;;-144.99;79.39;52101.59;5092374;28;20407;-74
2021/06/19 05:44:08;;;;;;;22.53;20.20;;;;;;;-144.99;78.98;52085.31;5090384;28;20213;-79
2021/06/19 05:46:35;;;;;;;20.57;18.67;;;;;;;-144.99;78.91;52099.56;5092239;28;20204;-77
2021/06/19 05:49:01;;;;;;;22.70;20.23;;;;;;;-144.99;78.66;52101.59;5092891;28;20277;-76
2021/06/19 05:51:28;;;;;;;25.17;22.53;;;;;;;-144.99;78.42;52085.31;5081207;28;20229;-79
2021/06/19 05:53:55;;;;;;;24.57;22.03;;;;;;;-144.99;77.85;52064.91;5092332;28;20296;-83
2021/06/19 05:56:22;;;;;;;24.83;22.40;;;;;;;-144.99;77.25;52091.41;5093624;28;20229;-79
2021/06/19 05:58:50;;;;;;;24.00;21.60;;;;;;;-144.99;77.16;52099.56;5092649;28;20217;-78
2021/06/19 06:01:17;;;;;;;25.47;22.90;;;;;;;-144.99;75.98;52089.38;5091454;28;20233;-81
2021/06/19 06:03:44;;;;;;;21.73;19.53;;;;;;;-144.99;75.88;52081.22;5089323;28;20625;-82
2021/06/19 06:06:11;;;;;;;29.50;21.70;;;;;;;-144.99;75.03;52085.31;5082306;28;20675;-78
2021/06/19 06:08:37;;;;;;;24.50;22.03;;;;;;;-144.99;75.63;52101.59;5090425;28;20671;-79
2021/06/19 06:11:04;;;;;;;29.37;24.70;;;;;;;-144.99;74.97;52093.44;5097020;28;20268;-80
2021/06/19 06:13:31;;;;;;;22.07;19.77;;;;;;;-144.99;74.29;52052.69;5096577;28;20838;-76
2021/06/19 06:15:59;;;;;;;24.43;21.83;;;;;;;-144.99;73.39;52060.84;5094042;28;20302;-78
2021/06/19 06:18:26;;;;;;;20.67;18.40;;;;;;;-144.99;73.36;52085.31;5094955;28;20221;-80
2021/06/19 06:20:53;;;;;;;19.70;17.70;;;;;;;-144.99;72.76;52030.28;5094063;28;20262;-78
2021/06/19 06:23:22;;;;;;;21.23;18.83;;;;;;;-144.99;71.84;52073.06;5088807;28;20588;-78
2021/06/19 06:25:49;;;;;;;21.30;18.53;;;;;;;-144.99;71.26;52054.72;5087434;28;20563;-80
2021/06/19 06:28:16;;;;;;;24.37;18.03;;;;;;;-144.99;70.77;52048.63;5095580;28;20297;-79
2021/06/19 06:30:43;;;;;;;22.03;14.60;;;;;;;-144.99;70.57;52101.59;5091090;28;20319;-79
2021/06/19 06:33:11;;;;;;;22.93;18.03;;;;;;;-144.99;69.30;52064.91;5081764;28;20210;-80
2021/06/19 06:35:38;;;;;;;19.87;15.53;;;;;;;-144.99;70.05;52054.72;5093776;28;20681;-81
2021/06/19 06:38:05;;;;;;;18.70;16.40;;;;;;;-144.99;69.61;52109.75;5091563;28;20214;-77
2021/06/19 06:40:31;;;;;;;19.10;16.37;;;;;;;-144.99;69.00;52036.38;5092750;28;20233;-77
2021/06/19 06:42:59;;;;;;;16.63;14.77;;;;;;;-144.99;68.73;52077.16;5093839;28;20575;-79
2021/06/19 06:45:26;;;;;;;22.97;15.60;;;;;;;-144.99;68.27;52064.91;5093365;28;20256;-77
2021/06/19 06:47:53;;;;;;;18.27;15.33;;;;;;;-144.99;67.71;52054.72;5093839;28;20573;-78
2021/06/19 06:50:22;;;;;;;17.30;12.87;;;;;;;-144.99;68.06;52064.91;5094469;28;20294;-78
2021/06/19 06:52:49;;;;;;;16.40;13.47;;;;;;;-144.99;66.18;52064.91;5076315;28;20307;-79
2021/06/19 06:55:16;;;;;;;14.50;10.40;;;;;;;-144.99;66.32;52044.53;5094650;28;20241;-81
2021/06/19 06:57:45;;;;;;;13.40;11.40;;;;;;;-144.99;65.51;52048.63;5096693;28;20212;-81
2021/06/19 07:00:13;;;;;;;15.30;10.83;;;;;;;-144.99;65.37;52089.38;5101906;28;20261;-79
2021/06/19 07:02:41;;;;;;;11.10;10.00;;;;;;;-144.99;64.91;52066.97;5097818;28;20214;-80
2021/06/19 07:05:09;;;;;;;12.00;9.07;;;;;;;-144.99;64.83;52069.00;5097077;28;20234;-82
2021/06/19 07:07:37;;;;;;;10.17;8.40;;;;;;;-144.99;63.87;52069.00;5095987;28;20215;-80
2021/06/19 07:10:05;;;;;;;12.13;8.43;;;;;;;-144.99;62.22;52028.22;5092752;28;20268;-77
2021/06/19 07:12:31;;;;;;;10.47;8.33;;;;;;;-144.99;62.76;52040.47;5090631;28;20299;-80
2021/06/19 07:14:58;;;;;;;8.60;7.67;;;;;;;-144.99;62.58;52016.00;5080975;28;20291;-79
2021/06/19 07:17:25;;;;;;;14.23;9.03;;;;;;;-144.99;61.59;52064.91;5095288;28;20208;-80
2021/06/19 07:19:52;;;;;;;13.37;7.97;;;;;;;-144.99;61.02;52034.34;5093884;28;20315;-78
2021/06/19 07:22:19;;;;;;;10.93;7.37;;;;;;;-144.99;61.53;52042.50;5094987;28;20258;-77
2021/06/19 07:24:48;;;;;;;8.77;4.97;;;;;;;-144.99;59.11;52048.63;5095103;28;20218;-80
2021/06/19 07:27:15;;;;;;;7.50;5.73;;;;;;;-144.99;58.79;52060.84;5098236;28;20218;-83
2021/06/19 07:29:43;;;;;;;7.33;5.10;;;;;;;-144.99;59.67;52069.00;5100996;28;20234;-82
2021/06/19 07:32:10;;;;;;;7.67;5.10;;;;;;;-144.99;59.63;52028.22;5100166;28;20233;-80
2021/06/19 07:34:37;;;;;;;9.80;5.50;;;;;;;-144.99;59.29;52058.81;5098039;28;20218;-80
2021/06/19 07:37:06;;;;;;;6.83;5.07;;;;;;;-144.99;58.01;52028.22;5096924;28;20212;-79
2021/06/19 07:39:33;;;;;;;8.60;5.17;;;;;;;-144.99;57.62;52064.91;5096723;28;20270;-79
2021/06/19 07:42:01;;;;;;;6.30;4.20;;;;;;;-144.99;56.99;52073.06;5096326;28;20315;-77
2021/06/19 07:44:28;;;;;;;6.27;4.83;;;;;;;-144.99;56.49;52048.63;5095608;28;20216;-79
2021/06/19 07:46:55;;;;;;;7.70;4.20;;;;;;;-144.99;56.72;52052.69;5097958;28;20212;-79
2021/06/19 07:49:21;;;;;;;9.43;4.20;;;;;;;-144.99;55.19;52052.69;5103185;28;20236;-80
2021/06/19 07:51:48;;;;;;;8.50;4.10;;;;;;;-144.99;55.95;52093.44;5100977;28;20356;-79
2021/06/19 07:54:15;;;;;;;8.07;4.10;;;;;;;-144.99;56.40;52060.84;5092040;28;20196;-79
2021/06/19 07:56:42;;;;;;;5.00;3.83;;;;;;;-144.99;55.91;52032.31;5096749;28;20218;-80
2021/06/19 07:59:10;;;;;;;4.33;3.17;;;;;;;-144.99;54.88;52034.34;5106067;28;20291;-80
2021/06/19 08:01:36;;;;;;;5.40;2.60;;;;;;;-144.99;53.75;52032.31;5089870;28;20232;-79
2021/06/19 08:04:03;;;;;;;3.73;3.30;;;;;;;-144.99;53.27;52040.47;5083921;28;20214;-79
2021/06/19 08:06:30;;;;;;;7.17;5.03;;;;;;;-144.99;54.16;52032.31;5081089;28;20233;-81
2021/06/19 08:08:57;;;;;;;4.73;3.13;;;;;;;-144.99;53.02;52032.31;5082955;28;20664;-79
2021/06/19 08:11:25;;;;;;;4.97;2.43;;;;;;;-144.99;52.70;52028.22;5086779;28;20299;-79
2021/06/19 08:13:53;;;;;;;4.47;2.37;;;;;;;-144.99;51.37;52016.00;5108868;28;20207;-81
2021/06/19 08:16:22;;;;;;;3.20;2.37;;;;;;;-144.99;51.72;52036.38;5086749;28;20216;-80
2021/06/19 08:18:49;;;;;;;3.80;2.47;;;;;;;-144.99;51.07;52044.53;5095025;28;20242;-81
2021/06/19 08:21:16;;;;;;;3.27;2.13;;;;;;;-144.99;51.25;52032.31;5094222;28;20231;-76
2021/06/19 08:23:43;;;;;;;5.27;2.83;;;;;;;-144.99;50.74;52016.00;5096810;28;20274;-81
2021/06/19 08:26:12;;;;;;;3.27;2.07;;;;;;;-144.99;50.52;51979.31;5095637;28;20261;-81
2021/06/19 08:28:39;;;;;;;7.67;2.73;;;;;;;-144.99;50.14;52016.00;5097591;28;20477;-78
2021/06/19 08:31:06;;;;;;;4.90;2.70;;;;;;;-144.99;49.46;52007.84;5088237;28;20225;-80
2021/06/19 08:33:34;;;;;;;2.63;2.07;;;;;;;-144.99;49.43;52024.16;5081671;28;20279;-79
2021/06/19 08:36:01;;;;;;;5.43;2.33;;;;;;;-144.99;50.45;52024.16;5087055;28;20207;-80
2021/06/19 08:38:28;;;;;;;4.53;2.73;;;;;;;-144.99;50.17;52016.00;5100874;28;20215;-80
2021/06/19 08:40:55;;;;;;;3.57;2.77;;;;;;;-144.99;50.45;52016.00;5094465;28;20242;-80
2021/06/19 08:43:21;;;;;;;3.80;2.63;;;;;;;-144.99;49.51;51999.69;5087928;28;20634;-80
2021/06/19 08:45:52;;;;;;;5.57;2.87;;;;;;;-144.99;49.20;51993.59;5095187;28;20234;-81
2021/06/19 08:48:20;;;;;;;8.17;2.83;;;;;;;-144.99;49.84;52050.66;5090540;28;20222;-80
2021/06/19 08:50:49;;;;;;;4.37;2.87;;;;;;;-144.99;50.01;52018.03;5092642;28;20259;-80
2021/06/19 08:53:20;;;;;;;5.43;2.97;;;;;;;-144.99;49.79;52050.66;5095114;28;20209;-79
2021/06/19 08:55:48;;;;;;;5.53;2.80;;;;;;;-144.99;50.69;52044.53;5097542;28;20202;-77
2021/06/19 08:58:15;;;;;;;4.07;2.67;;;;;;;-144.99;50.60;52069.00;5097359;28;20296;-80
2021/06/19 09:00:41;;;;;;;4.80;2.73;;;;;;;-144.99;50.45;52052.69;5090427;28;20246;-81
2021/06/19 09:03:20;;;;;;;7.23;3.10;;;;;;;-144.99;50.25;52024.16;5092636;28;20681;-81
2021/06/19 09:05:53;;;;;;;6.70;2.87;;;;;;;-144.99;50.12;52007.84;5091540;28;20207;-83
2021/06/19 09:08:20;;;;;;;2.50;2.00;;;;;;;-144.99;50.84;51987.47;5095723;28;20224;-82
2021/06/19 09:10:47;;;;;;;6.60;2.57;;;;;;;-144.99;50.71;52032.31;5094565;28;20235;-81
2021/06/19 09:13:15;;;;;;;3.70;2.50;;;;;;;-144.99;50.13;52001.75;5085791;28;20278;-83
2021/06/19 09:15:44;;;;;;;4.93;3.00;;;;;;;-144.99;50.42;51954.88;5085165;28;20294;-82
2021/06/19 09:18:17;;;;;;;3.23;1.70;;;;;;;-144.99;49.62;52044.53;5090963;28;20212;-80
2021/06/19 09:20:51;;;;;;;4.80;2.90;;;;;;;-144.99;49.61;52036.38;5099601;28;20237;-81
2021/06/19 09:23:30;;;;;;;4.57;2.53;;;;;;;-144.99;50.30;52024.16;5096903;28;20254;-80
2021/06/19 09:26:10;;;;;;;7.60;2.37;;;;;;;-144.99;49.83;52016.00;5096636;28;20207;-80
2021/06/19 09:29:01;;;;;;;3.13;2.30;;;;;;;-144.99;49.95;52032.31;5100871;28;20217;-81
2021/06/19 09:31:42;;;;;;;3.63;2.40;;;;;;;-144.99;50.01;52009.91;5098696;28;20251;-82
2021/06/19 09:34:13;;;;;;;6.80;2.10;;;;;;;-144.99;50.11;51995.63;5104936;28;20220;-82
2021/06/19 09:36:42;;;;;;;5.07;2.87;;;;;;;-144.99;49.79;52016.00;5106146;28;20669;-83
2021/06/19 09:39:13;;;;;;;5.43;2.90;;;;;;;-144.99;49.07;52003.78;5096724;28;20270;-82
2021/06/19 09:41:41;;;;;;;7.03;2.53;;;;;;;-144.99;49.04;52042.50;5084212;28;20430;-78
2021/06/19 09:44:08;;;;;;;4.70;2.50;;;;;;;-144.99;48.38;52048.63;5092604;28;20320;-78
2021/06/19 09:46:35;;;;;;;3.50;1.90;;;;;;;-144.99;48.86;52020.09;5096290;28;20209;-75
2021/06/19 09:49:30;;;;;;;4.87;2.27;;;;;;;-144.99;47.98;52003.78;5092775;28;20206;-79
2021/06/19 09:51:57;;;;;;;5.20;2.17;;;;;;;-144.99;47.33;51975.25;5065954;28;20290;-81
2021/06/19 09:54:26;;;;;;;2.60;1.90;;;;;;;-144.99;46.94;51995.63;5086222;28;20262;-80
2021/06/19 09:56:54;;;;;;;3.00;2.10;;;;;;;-144.99;47.56;52028.22;5097348;28;20286;-80
2021/06/19 09:59:26;;;;;;;2.33;2.10;;;;;;;-144.99;47.44;52005.81;5085882;28;20273;-79
2021/06/19 10:01:54;;;;;;;2.13;1.73;;;;;;;-144.99;47.15;52030.28;5079967;28;20310;-79
2021/06/19 10:04:22;;;;;;;1.60;1.50;;;;;;;-144.99;47.04;51979.31;5089100;28;20614;-80
2021/06/19 10:06:50;;;;;;;2.90;1.73;;;;;;;-144.99;46.98;51999.69;5096098;28;20299;-80
2021/06/19 10:09:17;;;;;;;2.53;1.57;;;;;;;-144.99;46.84;51971.16;5095631;28;20255;-80
2021/06/19 10:11:47;;;;;;;5.20;2.03;;;;;;;-144.99;46.68;51977.28;5095821;28;20652;-80
2021/06/19 10:14:17;;;;;;;4.03;2.30;;;;;;;-144.99;47.33;52016.00;5096483;28;20263;-79
2021/06/19 10:16:45;;;;;;;4.87;2.60;;;;;;;-144.99;47.23;51989.50;5099584;28;20222;-80
2021/06/19 10:19:12;;;;;;;5.67;1.80;;;;;;;-144.99;47.01;51969.13;5103032;28;20212;-80
2021/06/19 10:21:39;;;;;;;5.80;1.93;;;;;;;-144.99;46.14;51954.88;5107208;28;20236;-82
2021/06/19 10:24:08;;;;;;;2.80;1.93;;;;;;;-144.99;45.26;51963.03;5103400;28;20243;-80
2021/06/19 10:26:37;;;;;;;5.90;2.10;;;;;;;-144.99;46.10;52020.09;5105804;28;20275;-81
2021/06/19 10:29:07;;;;;;;5.20;1.87;;;;;;;-144.99;46.05;51934.50;5107686;28;20351;-81
2021/06/19 10:31:39;;;;;;;3.03;2.73;;;;;;;-144.99;45.37;51983.41;5104815;28;20287;-84
2021/06/19 10:34:19;;;;;;;5.37;1.83;;;;;;;-144.99;45.21;51963.03;5094628;28;20658;-81
2021/06/19 10:36:46;;;;;;;4.50;1.90;;;;;;;-144.99;44.95;51944.69;5091571;28;20264;-77
2021/06/19 10:39:15;;;;;;;3.73;2.03;;;;;;;-144.99;44.01;51950.78;5090669;28;20275;-78
2021/06/19 10:41:47;;;;;;;4.23;1.63;;;;;;;-144.99;44.89;51926.34;5091168;28;20234;-78
2021/06/19 10:44:15;;;;;;;2.57;1.77;;;;;;;-144.99;45.15;51967.09;5097412;28;20249;-78
2021/06/19 10:46:42;;;;;;;3.93;1.70;;;;;;;-144.99;45.41;51965.06;5104033;28;20207;-76
2021/06/19 10:49:36;;;;;;;3.60;2.23;;;;;;;-144.99;45.03;52016.00;5097605;28;20210;-77
2021/06/19 10:52:24;;;;;;;5.73;2.20;;;;;;;-144.99;45.70;51989.50;5073037;28;20234;-79
2021/06/19 10:55:25;;;;;;;4.10;2.27;;;;;;;-144.99;45.17;51930.41;5094358;28;20268;-78
2021/06/19 10:57:53;;;;;;;3.13;1.73;;;;;;;-144.99;45.46;51971.16;5095882;28;20221;-78
2021/06/19 11:00:46;;;;;;;6.07;2.10;;;;;;;-144.99;45.47;51938.56;5093516;28;20232;-77
2021/06/19 11:03:14;;;;;;;2.10;1.60;;;;;;;-144.99;45.26;51934.50;5095226;28;20777;-77
2021/06/19 11:05:58;;;;;;;3.17;2.20;;;;;;;-144.99;44.39;51942.63;5095610;28;20287;-78
2021/06/19 11:08:26;;;;;;;3.60;1.70;;;;;;;-144.99;43.99;51889.66;5095615;28;20380;-76
2021/06/19 11:10:57;;;;;;;2.10;1.40;;;;;;;-144.99;44.32;51897.81;5089996;28;20232;-77
2021/06/19 11:13:43;;;;;;;2.77;1.60;;;;;;;-144.99;43.50;51897.81;5096030;28;20219;-77
2021/06/19 11:16:50;;;;;;;1.70;1.43;;;;;;;-144.99;43.70;51991.56;4389421;28;10000746;-77